Latest Weather Observations for Walpole North

IDW60801

Issued at 4:33 pm WST Saturday 1 October 2016 (issued every 30 minutes, with the page automatically refreshed every 10 minutes)

About weather observations | Map of weather stations | Latest weather observations for WA | Other Formats
Station Details ID: 009998 Name: NORTH WALPOLE Lat: -34.95 Lon: 116.72 Height: 73.0 m
Data from the previous 72 hours. | See also: Recent months at Walpole North
Date/Time
WST
Temp
°C
App
Temp
°C
Dew
Point
°C
Rel
Hum
%
Delta-T
°C
Wind Press
QNH
hPa
Press
MSL
hPa
Rain since
9am
mm
Dir  Spd
km/h
Gust
km/h
Spd
kts
Gust
kts
01/04:30pm 8.4 2.9 4.0 74 1.9 WSW 22 32 12 17 999.8 999.7 -
01/04:00pm 9.6 1.5 3.1 64 2.8 WSW 35 65 19 35 999.5 999.4 -
01/03:30pm 10.9 3.1 3.0 58 3.4 WSW 33 59 18 32 998.8 998.7 -
01/03:00pm 11.2 4.7 4.9 65 2.9 W 28 50 15 27 998.6 998.5 -
01/02:45pm 10.7 4.4 5.5 70 2.4 W 28 46 15 25 998.4 998.3 -
01/02:30pm 8.5 3.6 5.1 79 1.5 W 20 32 11 17 998.4 998.3 -
01/02:28pm 8.0 3.0 4.4 78 1.6 W 20 32 11 17 998.4 998.3 -
01/02:00pm 9.1 0.0 2.0 61 3.0 WSW 39 70 21 38 998.1 998.0 -
01/01:30pm 9.6 0.6 2.5 61 3.0 WSW 39 67 21 36 998.3 998.2 -
01/01:00pm 12.4 5.1 4.6 59 3.6 W 32 61 17 33 997.4 997.3 -
01/12:30pm 11.6 2.3 2.9 55 3.8 WSW 41 76 22 41 997.1 997.0 -
01/12:01pm 9.4 1.1 4.4 71 2.2 WSW 37 59 20 32 996.8 996.7 -
01/12:00pm 9.3 - 4.1 70 2.3 - - - - - 997.1 997.0 -
01/10:00am 8.8 -0.6 5.2 78 1.6 WSW 44 76 24 41 995.8 995.7 0.6
01/09:50am 8.5 -1.0 4.1 74 1.9 WSW 43 85 23 46 995.3 995.2 0.4
01/09:30am 11.3 3.3 5.6 68 2.6 WSW 37 69 20 37 995.1 995.0 0.0
01/09:13am 10.1 0.8 4.9 70 2.4 W 43 76 23 41 995.0 994.9 0.0
01/09:12am 10.1 0.6 4.7 69 2.4 W 44 76 24 41 995.0 994.9 0.0
01/09:02am 9.1 -0.9 4.5 73 2.0 W 46 80 25 43 994.8 994.7 0.0
01/09:00am 9.5 0.6 5.1 74 2.0 W 41 74 22 40 994.5 994.4 7.6
01/08:45am 9.2 -2.1 3.4 67 2.5 W 52 87 28 47 994.5 994.4 7.6
01/08:42am 9.4 -1.2 3.2 65 2.7 W 48 87 26 47 994.7 994.6 7.6
01/08:36am 10.1 1.4 4.3 67 2.6 W 39 82 21 44 994.0 993.9 7.6
01/08:30am 10.3 2.6 5.3 71 2.3 W 35 57 19 31 994.0 993.9 7.6
01/08:00am 9.0 -0.9 5.0 76 1.8 W 46 95 25 51 994.2 994.1 7.4
01/07:36am 10.1 0.5 6.1 76 1.9 W 46 87 25 47 993.7 993.6 7.4
01/07:30am 9.9 2.0 6.3 78 1.7 W 37 65 20 35 992.7 992.6 7.4
01/07:00am 10.3 1.9 5.7 73 2.1 W 39 65 21 35 992.6 992.5 7.2
01/06:30am 9.0 0.0 6.4 84 1.2 WNW 43 85 23 46 992.3 992.2 7.2
01/06:21am 9.2 0.3 7.0 86 1.0 W 43 85 23 46 992.4 992.3 7.2
01/06:00am 9.4 2.0 6.8 84 1.2 W 35 61 19 33 991.9 991.8 6.2
01/05:38am 9.7 1.3 7.3 85 1.1 WNW 41 59 22 32 991.4 991.4 5.6
01/05:30am 10.0 -0.1 7.3 83 1.3 WNW 50 78 27 42 991.2 991.2 5.4
01/05:17am 10.1 -0.7 7.7 85 1.2 NW 54 83 29 45 990.9 990.9 5.4
01/05:00am 10.3 1.8 8.6 89 0.8 WNW 43 72 23 39 990.9 990.9 5.2
01/04:53am 10.6 3.0 9.0 90 0.8 NW 39 72 21 39 990.6 990.6 4.6
01/04:31am 11.6 5.6 8.6 82 1.5 NNW 30 48 16 26 990.0 990.0 3.0
01/04:30am 11.5 5.5 8.5 82 1.5 NNW 30 46 16 25 990.1 990.1 3.0
01/04:17am 11.4 5.8 8.8 84 1.3 NW 28 52 15 28 990.8 990.8 3.0
01/04:00am 11.4 5.0 8.6 83 1.4 NW 32 48 17 26 991.7 991.6 3.0
01/03:30am 11.4 5.4 8.8 84 1.3 NW 30 50 16 27 992.7 992.6 3.0
01/03:25am 11.4 5.8 8.8 84 1.3 NW 28 50 15 27 993.0 992.9 3.0
01/03:00am 11.1 5.9 8.7 85 1.2 NNW 26 35 14 19 993.9 993.8 3.0
01/02:33am 11.2 5.6 8.9 86 1.1 NNW 28 50 15 27 994.3 994.2 3.0
01/02:30am 11.2 5.6 8.9 86 1.1 NNW 28 44 15 24 994.4 994.3 3.0
01/02:00am 10.9 6.5 8.8 87 1.1 NNW 22 39 12 21 995.6 995.5 3.0
01/01:30am 10.8 5.6 8.7 87 1.0 NW 26 43 14 23 996.6 996.5 3.0
01/01:00am 10.6 6.1 8.7 88 0.9 NW 22 33 12 18 996.9 996.8 3.0
01/12:30am 10.8 6.5 9.4 91 0.7 NW 22 32 12 17 998.0 998.0 3.0
01/12:00am 11.0 6.0 9.6 91 0.7 NW 26 33 14 18 998.3 998.3 2.8
 
Date/Time
WST
Temp
°C
App
Temp
°C
Dew
Point
°C
Rel
Hum
%
Delta-T
°C
Wind Press
QNH
hPa
Press
MSL
hPa
Rain since
9am
mm
Dir  Spd
km/h
Gust
km/h
Spd
kts
Gust
kts
30/11:30pm 11.1 6.9 9.7 91 0.7 NNW 22 33 12 18 998.8 998.8 2.8
30/11:00pm 11.2 7.4 9.8 91 0.7 NW 20 30 11 16 999.3 999.3 2.8
30/10:30pm 11.2 7.3 9.6 90 0.8 NW 20 28 11 15 999.9 999.9 2.8
30/10:00pm 11.1 7.9 10.0 93 0.6 NW 17 22 9 12 1000.5 1000.5 2.8
30/09:30pm 11.1 8.0 10.3 95 0.4 NW 17 22 9 12 1001.0 1001.0 2.8
30/09:00pm 11.1 7.6 10.2 94 0.5 WNW 19 26 10 14 1001.2 1001.2 2.8
30/08:30pm 11.5 7.7 9.2 86 1.2 WNW 19 30 10 16 1001.3 1001.3 2.4
30/08:00pm 12.0 9.0 9.2 83 1.4 WNW 15 20 8 11 1001.4 1001.4 2.2
30/07:30pm 12.5 9.2 8.2 75 2.1 W 15 26 8 14 1001.2 1001.2 2.2
30/07:00pm 12.5 8.6 8.6 77 2.0 W 19 30 10 16 1001.2 1001.2 2.2
30/06:30pm 12.0 8.3 9.4 84 1.3 WNW 19 28 10 15 1000.9 1000.9 2.2
30/06:00pm 12.1 8.9 10.0 87 1.1 WNW 17 33 9 18 1000.9 1000.9 2.2
30/05:30pm 11.9 9.2 11.6 98 0.2 WNW 17 24 9 13 1000.9 1000.9 2.2
30/05:00pm 11.9 8.6 11.6 98 0.2 WNW 20 32 11 17 1000.9 1000.9 2.2
30/04:40pm 12.1 7.2 11.3 95 0.4 W 28 48 15 26 1000.8 1000.8 1.6
30/04:30pm 12.3 8.6 11.5 95 0.4 W 22 39 12 21 1000.6 1000.6 1.4
30/04:00pm 13.3 7.0 11.2 87 1.1 W 35 69 19 37 1000.2 1000.2 1.2
30/03:30pm 13.9 8.0 12.3 90 0.9 WNW 35 57 19 31 999.7 999.7 0.8
30/03:00pm 14.5 8.1 10.7 78 2.0 WNW 35 57 19 31 999.3 999.3 0.4
30/02:30pm 14.0 5.9 11.9 87 1.1 WNW 46 72 25 39 999.5 999.5 0.4
30/02:00pm 15.6 7.8 11.0 74 2.5 WNW 43 70 23 38 999.4 999.4 0.0
30/01:30pm 14.1 7.4 12.3 89 1.0 WNW 39 57 21 31 999.7 999.7 0.0
30/01:00pm 15.5 8.2 10.3 71 2.8 WNW 39 70 21 38 999.8 999.8 0.0
30/12:32pm 15.9 9.2 9.6 66 3.3 WNW 35 54 19 29 1000.1 1000.1 0.0
30/12:30pm 15.7 8.1 9.1 65 3.4 WNW 39 54 21 29 1000.1 1000.1 0.0
30/12:03pm 15.5 9.0 10.3 71 2.7 NW 35 54 19 29 999.8 999.8 0.0
30/12:00pm 15.6 9.2 10.8 73 2.6 NW 35 50 19 27 1000.0 1000.0 0.0
30/11:30am 15.7 9.7 10.7 72 2.7 WNW 33 54 18 29 1000.3 1000.3 0.0
30/11:00am 15.0 9.8 10.2 73 2.5 WNW 28 46 15 25 1000.8 1000.8 0.0
30/10:31am 14.9 9.6 11.1 78 2.0 WNW 30 48 16 26 1001.2 1001.2 0.0
30/10:30am 15.1 9.5 11.5 79 1.9 WNW 32 48 17 26 1001.3 1001.3 0.0
30/10:16am 13.9 8.1 10.7 81 1.7 WNW 32 50 17 27 1001.5 1001.5 0.0
30/10:00am 14.6 9.4 11.6 82 1.6 NW 30 46 16 25 1001.3 1001.3 0.0
30/09:30am 13.2 8.3 11.4 89 1.0 NW 28 39 15 21 1001.7 1001.7 0.0
30/09:00am 12.1 7.6 11.5 96 0.3 NW 26 39 14 21 1002.0 1002.0 1.4
30/08:30am 11.0 6.3 10.8 99 0.1 NW 26 43 14 23 1002.5 1002.5 1.4
30/08:00am 10.6 6.8 9.0 90 0.8 WNW 19 35 10 19 1002.9 1002.9 0.4
30/07:30am 11.3 7.0 7.8 79 1.7 NW 20 44 11 24 1002.3 1002.3 0.2
30/07:00am 11.0 5.8 7.1 77 1.9 NNW 24 39 13 21 1002.4 1002.4 0.2
30/06:30am 10.6 5.7 6.7 77 1.8 NNW 22 39 12 21 1002.3 1002.3 0.2
30/06:00am 10.4 6.0 6.5 77 1.8 NNW 19 26 10 14 1002.7 1002.7 0.2
30/05:30am 10.5 6.8 6.5 76 1.9 NNW 15 24 8 13 1002.8 1002.8 0.2
30/05:00am 10.3 6.3 6.5 77 1.8 NW 17 30 9 16 1003.7 1003.7 0.2
30/04:30am 10.4 6.7 6.2 75 2.0 NNW 15 24 8 13 1004.1 1004.1 0.2
30/04:00am 10.3 6.3 6.5 77 1.8 NNW 17 28 9 15 1004.8 1004.8 0.2
30/03:30am 10.0 5.6 6.7 80 1.6 NW 19 26 10 14 1005.3 1005.3 0.2
30/03:00am 10.2 5.7 6.9 80 1.6 NW 20 30 11 16 1006.2 1006.1 0.2
30/02:30am 10.1 6.6 7.3 83 1.3 NW 15 30 8 16 1006.8 1006.7 0.2
30/02:00am 9.9 6.8 7.3 84 1.2 NNW 13 22 7 12 1006.8 1006.7 0.2
30/01:30am 9.8 6.3 7.2 84 1.2 N 15 20 8 11 1007.5 1007.4 0.2
30/01:00am 10.0 6.9 7.3 83 1.3 N 13 20 7 11 1008.2 1008.1 0.2
30/12:30am 10.6 7.5 7.3 80 1.6 NNW 13 22 7 12 1008.4 1008.3 0.2
30/12:00am 10.9 7.8 7.4 79 1.7 N 13 24 7 13 1009.0 1009.0 0.2
 
Date/Time
WST
Temp
°C
App
Temp
°C
Dew
Point
°C
Rel
Hum
%
Delta-T
°C
Wind Press
QNH
hPa
Press
MSL
hPa
Rain since
9am
mm
Dir  Spd
km/h
Gust
km/h
Spd
kts
Gust
kts
29/11:30pm 10.5 7.7 7.0 79 1.7 NNW 11 19 6 10 1009.7 1009.7 0.2
29/11:00pm 10.4 7.5 6.7 78 1.7 NNW 11 17 6 9 1010.6 1010.6 0.2
29/10:30pm 10.9 8.4 6.6 75 2.0 N 9 17 5 9 1011.1 1011.1 0.2
29/10:00pm 10.4 8.5 7.5 82 1.4 N 7 13 4 7 1011.7 1011.7 0.2
29/09:30pm 9.2 8.4 6.5 83 1.3 CALM 0 6 0 3 1012.3 1012.3 0.2
29/09:00pm 9.4 8.6 6.3 81 1.4 CALM 0 7 0 4 1012.4 1012.4 0.2
29/08:30pm 9.9 9.1 6.4 79 1.6 CALM 0 6 0 3 1012.8 1012.8 0.2
29/08:00pm 10.6 8.6 7.3 80 1.6 NNE 7 11 4 6 1013.1 1013.1 0.2
29/07:30pm 11.3 9.7 8.7 84 1.3 NNW 7 9 4 5 1013.1 1013.1 0.2
29/07:00pm 12.2 10.5 8.3 77 1.9 NNW 7 9 4 5 1013.3 1013.3 0.0
29/06:30pm 12.6 10.5 8.3 75 2.1 NW 9 13 5 7 1013.3 1013.3 0.0
29/06:00pm 12.9 11.2 7.6 70 2.6 NNW 6 7 3 4 1013.5 1013.5 0.0
29/05:30pm 13.9 12.0 7.7 66 3.1 WNW 7 15 4 8 1013.4 1013.4 0.0
29/05:00pm 14.8 13.1 7.6 62 3.6 SSE 6 9 3 5 1013.6 1013.6 0.0
29/04:30pm 15.5 13.1 6.8 56 4.3 WSW 9 13 5 7 1013.4 1013.4 0.0
29/04:00pm 15.9 13.0 6.6 54 4.6 NNW 11 19 6 10 1013.6 1013.6 0.0
29/03:30pm 16.1 13.9 6.3 52 4.8 NNW 7 11 4 6 1014.0 1014.0 0.0
29/03:00pm 16.6 13.7 6.7 52 4.9 NW 11 17 6 9 1014.5 1014.5 0.0
29/02:30pm 15.9 13.3 6.3 53 4.7 NNW 9 17 5 9 1015.0 1015.0 0.0
29/02:00pm 15.7 12.7 7.7 59 4.0 WNW 13 24 7 13 1015.8 1015.8 0.0
29/01:30pm 14.8 11.4 6.1 56 4.2 WNW 13 24 7 13 1016.6 1016.6 0.0
29/01:00pm 14.8 11.5 6.4 57 4.1 WNW 13 30 7 16 1017.5 1017.5 0.0
29/12:30pm 14.5 11.4 5.6 55 4.2 NW 11 22 6 12 1018.0 1018.0 0.0
29/12:00pm 14.4 10.4 6.5 59 3.8 NW 17 28 9 15 1018.5 1018.5 0.0
29/11:30am 13.7 9.5 5.8 59 3.8 NW 17 26 9 14 1018.9 1018.9 0.0
29/11:00am 13.0 9.4 5.2 59 3.6 NW 13 24 7 13 1019.4 1019.4 0.0
29/10:30am 12.3 8.3 4.8 60 3.4 NNW 15 28 8 15 1020.0 1019.9 0.0
29/10:00am 12.5 9.1 6.1 65 3.0 NNE 13 22 7 12 1020.4 1020.4 0.0
29/09:30am 10.8 6.6 4.0 63 3.0 NNE 15 24 8 13 1020.8 1020.8 0.0
29/09:00am 10.3 6.6 4.5 67 2.6 N 13 22 7 12 1021.5 1021.5 0.0
29/08:30am 9.5 5.6 3.3 65 2.7 NNE 13 26 7 14 1021.6 1021.6 0.0
29/08:00am 8.7 5.2 3.5 70 2.2 N 11 20 6 11 1021.9 1021.9 0.0
29/07:30am 8.0 4.9 3.7 74 1.9 NNE 9 15 5 8 1021.7 1021.7 0.0
29/07:00am 7.1 4.5 4.2 82 1.2 N 7 11 4 6 1021.9 1021.9 0.0
29/06:30am 6.2 4.4 3.7 84 1.1 NW 2 9 1 5 1021.7 1021.7 0.0
29/06:00am 6.4 3.8 4.2 86 0.9 N 7 9 4 5 1021.4 1021.4 0.0
29/05:30am 7.0 4.4 4.1 82 1.3 N 7 13 4 7 1021.4 1021.4 0.0
29/05:00am 6.7 4.2 4.5 86 1.0 NE 7 9 4 5 1021.4 1021.4 0.0
29/04:30am 6.5 4.0 4.0 84 1.1 NE 6 7 3 4 1021.4 1021.4 0.0
29/04:00am 6.5 3.9 4.3 86 0.9 NE 7 9 4 5 1021.1 1021.1 0.0
29/03:30am 6.8 4.4 5.1 89 0.7 NE 7 11 4 6 1021.3 1021.3 0.0
29/03:00am 7.1 4.7 5.4 89 0.8 NE 7 11 4 6 1021.6 1021.6 0.0
29/02:30am 7.6 5.9 5.7 88 0.9 NE 4 9 2 5 1021.8 1021.8 0.0
29/02:00am 7.3 5.0 5.6 89 0.8 ENE 7 11 4 6 1022.0 1022.0 0.0
29/01:30am 7.1 6.2 5.9 92 0.5 CALM 0 0 0 0 1022.6 1022.6 0.0
29/01:00am 7.2 5.8 5.7 90 0.7 E 2 7 1 4 1023.3 1023.3 0.0
29/12:30am 7.7 6.7 5.7 87 0.9 CALM 0 0 0 0 1023.4 1023.4 0.0
29/12:00am 7.4 6.3 4.9 84 1.1 CALM 0 0 0 0 1023.4 1023.4 0.0
 
Date/Time
WST
Temp
°C
App
Temp
°C
Dew
Point
°C
Rel
Hum
%
Delta-T
°C
Wind Press
QNH
hPa
Press
MSL
hPa
Rain since
9am
mm
Dir  Spd
km/h
Gust
km/h
Spd
kts
Gust
kts
28/11:30pm 7.1 6.0 5.3 88 0.8 CALM 0 0 0 0 1023.4 1023.4 0.0
28/11:00pm 7.8 6.4 5.3 84 1.1 E 2 7 1 4 1023.5 1023.5 0.0
28/10:30pm 7.4 4.9 4.9 84 1.1 E 7 9 4 5 1023.8 1023.8 0.0
28/10:00pm 7.8 6.7 4.9 82 1.3 CALM 0 0 0 0 1024.0 1024.0 0.0
28/09:30pm 7.6 6.0 4.6 81 1.3 E 2 6 1 3 1024.3 1024.3 0.0
28/09:00pm 8.0 6.8 4.6 79 1.5 CALM 0 0 0 0 1024.4 1024.4 0.0
28/08:30pm 8.5 7.3 4.5 76 1.8 CALM 0 0 0 0 1024.4 1024.4 0.0
28/08:00pm 8.8 6.4 4.2 73 2.0 SE 6 9 3 5 1024.0 1024.0 0.0
28/07:30pm 8.9 6.8 3.7 70 2.3 S 4 13 2 7 1023.9 1023.9 0.0
28/07:00pm 9.1 5.6 3.5 68 2.4 SSE 11 19 6 10 1023.9 1023.9 0.0
28/06:30pm 9.0 5.9 3.8 70 2.3 SSW 9 17 5 9 1023.8 1023.8 0.0
28/06:00pm 9.4 6.7 3.6 67 2.5 S 7 15 4 8 1023.6 1023.6 0.0
28/05:30pm 9.8 6.9 4.4 69 2.4 S 9 17 5 9 1023.5 1023.5 0.0
28/05:00pm 10.4 7.2 5.2 70 2.4 S 11 17 6 9 1023.3 1023.3 0.0

Other Formats:

Comma delimited format used in spreadsheet applications
http://www.bom.gov.au/fwo/IDW60801/IDW60801.95647.axf

JavaScript Object Notation format (JSON) in row-major order
http://www.bom.gov.au/fwo/IDW60801/IDW60801.95647.json